Time;durP1;ratioP1;P1;durP2;ratioP2;P2;SDS_P1;SDS_P2;PMS_P1;PMS_P2;Temp;Humidity;BMP_temperature;BMP_pressure;BME280_temperature;BME280_humidity;BME280_pressure;Samples;Min_cycle;Max_cycle;Signal;HPM_P1;HPM_P2
2023/11/16 00:01:57;;;;;;;;;7.00;6.75;;;;;16.66;74.02;100731.63;146619;667;47011;-73
2023/11/16 00:04:54;;;;;;;;;7.75;7.50;;;;;16.67;73.56;100740.41;146617;695;46915;-71
2023/11/16 00:08:06;;;;;;;;;8.50;6.00;;;;;16.68;73.86;100739.56;146620;571;46010;-73
2023/11/16 00:11:00;;;;;;;;;5.75;5.25;;;;;16.68;74.11;100736.94;146614;672;47042;-71
2023/11/16 00:14:00;;;;;;;;;7.50;5.00;;;;;16.68;73.96;100745.66;146606;694;47020;-72
2023/11/16 00:17:00;;;;;;;;;4.25;4.00;;;;;16.60;74.93;100749.78;146615;692;46016;-71
2023/11/16 00:20:09;;;;;;;;;;;;;;;;;;;;;
2023/11/16 00:23:15;;;;;;;;;7.75;7.50;;;;;16.47;76.15;100760.78;146615;601;47012;-70
2023/11/16 00:26:21;;;;;;;;;7.00;7.00;;;;;16.47;76.71;100756.44;146620;629;46020;-70
2023/11/16 00:29:36;;;;;;;;;6.25;5.25;;;;;16.55;75.49;100751.44;146614;588;46016;-71
2023/11/16 00:32:43;;;;;;;;;8.75;8.00;;;;;16.56;73.96;100767.16;146618;579;46020;-73
2023/11/16 00:35:47;;;;;;;;;7.50;7.00;;;;;16.59;74.38;100780.34;146615;677;47012;-72
2023/11/16 00:38:52;;;;;;;;;;;;;;;;;;;;;
2023/11/16 00:41:57;;;;;;;;;7.25;6.00;;;;;16.56;74.60;100790.72;146612;674;46016;-73
2023/11/16 00:44:53;;;;;;;;;7.75;6.75;;;;;16.54;75.03;100802.91;146608;564;46011;-73
2023/11/16 00:48:11;;;;;;;;;5.00;5.00;;;;;16.52;74.10;100782.75;146614;574;46016;-72
2023/11/16 00:51:17;;;;;;;;;7.50;7.25;;;;;16.53;74.97;100781.91;146620;611;46020;-74
2023/11/16 00:54:27;;;;;;;;;8.25;7.00;;;;;14.84;73.72;100501.63;146616;589;47022;-72
2023/11/16 00:57:21;;;;;;;;;9.00;7.75;;;;;16.49;74.74;100787.91;146620;641;46020;-74
2023/11/16 01:00:27;;;;;;;;;8.00;5.50;;;;;16.49;74.45;100786.16;146616;601;46016;-76
2023/11/16 01:03:22;;;;;;;;;6.00;5.00;;;;;16.42;75.21;100791.16;146619;617;46020;-74
2023/11/16 01:06:23;;;;;;;;;4.25;3.75;;;;;16.33;74.84;100782.22;146610;610;47017;-75
2023/11/16 01:09:36;;;;;;;;;12.75;9.00;;;;;14.35;73.43;100482.66;146623;563;46020;-75
2023/11/16 01:12:35;;;;;;;;;11.50;9.25;;;;;16.26;75.20;100805.53;146616;645;46035;-74
2023/11/16 01:15:44;;;;;;;;;11.50;8.50;;;;;16.22;74.70;100804.56;146606;688;46021;-75
2023/11/16 01:18:49;;;;;;;;;6.00;6.00;;;;;16.14;75.92;100801.72;146611;575;47012;-74
2023/11/16 01:21:50;;;;;;;;;6.25;5.00;;;;;16.02;77.68;100811.81;146618;722;46021;-76
2023/11/16 01:24:57;;;;;;;;;7.75;5.50;;;;;15.93;76.73;100830.72;146616;627;46032;-76
2023/11/16 01:28:32;;;;;;;;;6.00;6.00;;;;;14.21;75.89;100544.81;146619;618;47020;-76
2023/11/16 01:31:40;;;;;;;;;5.00;4.25;;;;;15.91;77.92;100835.00;146617;599;46016;-77
2023/11/16 01:34:45;;;;;;;;;4.00;4.00;;;;;15.95;77.09;100849.09;146623;682;46010;-74
2023/11/16 01:37:52;;;;;;;;;1.33;1.33;;;;;16.01;73.77;100848.38;146621;635;46013;-73
2023/11/16 01:40:52;;;;;;;;;4.00;2.75;;;;;16.20;74.70;100839.38;146621;573;46029;-71
2023/11/16 01:43:49;;;;;;;;;1.33;0.00;;;;;16.44;70.51;100857.53;146619;584;46016;-72
2023/11/16 01:46:45;;;;;;;;;3.67;3.67;;;;;16.62;72.67;100873.78;146615;576;48010;-73
2023/11/16 01:49:57;;;;;;;;;4.00;4.00;;;;;16.73;73.33;100874.06;146604;580;47915;-74
2023/11/16 01:53:13;;;;;;;;;3.67;2.67;;;;;16.78;69.05;100865.53;146619;688;46021;-74
2023/11/16 01:56:29;;;;;;;;;1.67;1.00;;;;;16.92;65.70;100872.94;146615;625;46012;-73
2023/11/16 01:59:38;;;;;;;;;1.00;1.00;;;;;15.12;63.68;100534.66;146621;695;47015;-74
2023/11/16 02:02:45;;;;;;;;;3.00;1.00;;;;;17.22;64.37;100878.97;146613;676;47012;-73
2023/11/16 02:05:52;;;;;;;;;1.00;1.00;;;;;17.38;62.13;100867.16;146621;658;46020;-71
2023/11/16 02:08:54;;;;;;;;;1.00;1.00;;;;;17.52;62.66;100850.06;146618;587;46016;-69
2023/11/16 02:11:49;;;;;;;;;0.00;0.00;;;;;17.60;58.79;100852.88;146618;664;46010;-72
2023/11/16 02:14:56;;;;;;;;;0.00;0.00;;;;;17.69;59.10;100865.31;146611;683;46017;-75
2023/11/16 02:17:53;;;;;;;;;0.00;0.00;;;;;17.76;58.27;100888.22;146606;644;47020;-72
2023/11/16 02:20:56;;;;;;;;;0.33;0.00;;;;;17.84;59.87;100897.19;146615;592;47012;-75
2023/11/16 02:24:05;;;;;;;;;1.33;1.33;;;;;17.89;62.29;100915.69;146620;594;46010;-71
2023/11/16 02:27:01;;;;;;;;;0.00;0.00;;;;;17.91;59.53;100904.38;146616;617;47016;-70
2023/11/16 02:29:57;;;;;;;;;0.00;0.00;;;;;17.94;53.86;100887.81;146617;560;47010;-72
2023/11/16 02:33:20;;;;;;;;;0.67;0.00;;;;;17.98;54.75;100889.66;146615;601;47012;-71
2023/11/16 02:36:26;;;;;;;;;0.67;0.67;;;;;16.67;58.82;100677.56;146622;645;46039;-72
2023/11/16 02:39:18;;;;;;;;;0.00;0.00;;;;;18.07;60.96;100928.34;146613;595;47915;-71
2023/11/16 02:42:16;;;;;;;;;1.00;1.00;;;;;18.06;61.27;100929.19;146618;594;46020;-71
2023/11/16 02:45:34;;;;;;;;;;;;;;;;;;;;;
2023/11/16 02:48:29;;;;;;;;;0.00;0.00;;;;;17.95;53.71;100947.31;146608;569;46020;-73
2023/11/16 02:51:31;;;;;;;;;0.00;0.00;;;;;17.86;50.53;100962.81;146612;635;48016;-74
2023/11/16 02:54:26;;;;;;;;;0.00;0.00;;;;;17.80;50.67;100976.66;146617;574;46030;-75
2023/11/16 02:57:34;;;;;;;;;0.00;0.00;;;;;17.73;51.51;100990.44;146617;571;46033;-80
2023/11/16 03:01:14;;;;;;;;;0.67;0.00;;;;;17.64;52.58;100977.97;146622;569;46020;-75
2023/11/16 03:04:32;;;;;;;;;;;;;;;;;;;;;
2023/11/16 03:07:31;;;;;;;;;0.00;0.00;;;;;17.44;53.91;100981.78;146617;648;47014;-74
2023/11/16 03:10:40;;;;;;;;;0.00;0.00;;;;;17.38;55.12;100974.62;146614;608;46016;-73
2023/11/16 03:13:41;;;;;;;;;0.00;0.00;;;;;17.29;54.72;100995.38;146621;579;46020;-76
2023/11/16 03:16:51;;;;;;;;;0.00;0.00;;;;;17.27;55.04;101003.16;146614;677;46016;-76
2023/11/16 03:19:53;;;;;;;;;0.00;0.00;;;;;17.21;55.32;101003.00;146602;601;47916;-74
2023/11/16 03:22:50;;;;;;;;;0.00;0.00;;;;;17.20;55.74;100993.37;146614;622;46016;-76
2023/11/16 03:26:03;;;;;;;;;0.00;0.00;;;;;17.19;56.41;100988.06;146618;563;46020;-73
2023/11/16 03:29:11;;;;;;;;;0.00;0.00;;;;;17.12;55.95;100979.16;146616;630;46017;-74
2023/11/16 03:32:08;;;;;;;;;0.00;0.00;;;;;17.09;56.04;100974.69;146621;596;46020;-71
2023/11/16 03:35:06;;;;;;;;;0.00;0.00;;;;;17.05;55.95;100977.19;146618;654;46916;-73
2023/11/16 03:38:24;;;;;;;;;0.00;0.00;;;;;15.17;57.21;100653.19;146616;614;46020;-77
2023/11/16 03:41:27;;;;;;;;;0.00;0.00;;;;;17.00;56.35;100979.66;146614;618;47012;-74
2023/11/16 03:44:38;;;;;;;;;0.00;0.00;;;;;17.00;56.60;100982.28;146620;583;46011;-74
2023/11/16 03:47:40;;;;;;;;;0.00;0.00;;;;;17.00;55.46;100976.16;146619;575;47012;-75
2023/11/16 03:50:54;;;;;;;;;0.00;0.00;;;;;17.01;56.22;100984.09;146609;574;47010;-74
2023/11/16 03:54:12;;;;;;;;;0.00;0.00;;;;;17.04;55.59;100989.41;146613;574;47016;-77
2023/11/16 03:57:47;;;;;;;;;0.33;0.00;;;;;15.37;56.35;100687.78;146621;672;46010;-74
2023/11/16 04:00:41;;;;;;;;;0.00;0.00;;;;;17.09;55.42;100979.94;146619;639;46914;-73
2023/11/16 04:03:45;;;;;;;;;0.00;0.00;;;;;17.07;55.97;100983.34;146617;614;46020;-73
2023/11/16 04:06:54;;;;;;;;;;;;;;;;;;;;;
2023/11/16 04:09:49;;;;;;;;;0.00;0.00;;;;;17.03;56.75;100987.62;146620;569;46020;-75
2023/11/16 04:12:48;;;;;;;;;0.00;0.00;;;;;17.00;57.55;101002.38;146617;570;46032;-74
2023/11/16 04:15:54;;;;;;;;;0.00;0.00;;;;;16.96;58.49;101004.00;146619;630;46010;-73
2023/11/16 04:19:00;;;;;;;;;0.00;0.00;;;;;16.94;58.33;101007.41;146619;669;46913;-72
2023/11/16 04:21:58;;;;;;;;;0.00;0.00;;;;;16.95;58.65;101014.47;146611;595;46014;-74
2023/11/16 04:25:14;;;;;;;;;3.00;2.67;;;;;16.94;59.01;101015.28;146615;593;46028;-72
2023/11/16 04:28:16;;;;;;;;;0.00;0.00;;;;;16.94;57.67;101023.13;146619;580;46010;-73
2023/11/16 04:31:28;;;;;;;;;0.00;0.00;;;;;16.96;57.67;101035.44;146615;581;46016;-75
2023/11/16 04:34:24;;;;;;;;;0.00;0.00;;;;;17.01;57.05;101046.06;146622;597;46010;-75
2023/11/16 04:37:23;;;;;;;;;0.00;0.00;;;;;17.07;55.74;101046.22;146616;566;47012;-76
2023/11/16 04:40:22;;;;;;;;;0.00;0.00;;;;;17.11;54.58;101053.38;146620;689;46010;-77
2023/11/16 04:43:25;;;;;;;;;0.00;0.00;;;;;17.10;53.14;101062.03;146615;623;46013;-74
2023/11/16 04:46:28;;;;;;;;;0.00;0.00;;;;;17.09;50.79;101057.66;146623;590;46010;-74
2023/11/16 04:49:33;;;;;;;;;0.67;0.00;;;;;17.07;52.20;101065.47;146619;660;47012;-75
2023/11/16 04:52:43;;;;;;;;;0.00;0.00;;;;;15.38;53.26;100778.38;146614;579;46030;-70
2023/11/16 04:55:45;;;;;;;;;0.00;0.00;;;;;17.05;51.46;101089.84;146618;599;46012;-72
2023/11/16 04:58:43;;;;;;;;;0.00;0.00;;;;;17.01;51.83;101090.63;146616;571;47011;-75
2023/11/16 05:01:55;;;;;;;;;1.00;0.00;;;;;17.02;51.82;101100.25;146611;679;46016;-73
2023/11/16 05:04:52;;;;;;;;;0.00;0.00;;;;;16.99;49.97;101089.66;146618;661;46021;-72
2023/11/16 05:08:03;;;;;;;;;0.00;0.00;;;;;17.02;52.00;101110.72;146616;572;46012;-72
2023/11/16 05:11:08;;;;;;;;;0.00;0.00;;;;;17.02;50.71;101113.34;146618;621;46020;-72
2023/11/16 05:14:06;;;;;;;;;0.00;0.00;;;;;17.04;50.42;101119.50;146618;619;46017;-73
2023/11/16 05:17:10;;;;;;;;;0.67;0.00;;;;;17.07;50.00;101111.72;146613;691;46020;-72
2023/11/16 05:20:06;;;;;;;;;1.00;0.00;;;;;17.08;50.67;101119.66;146614;576;46017;-73
2023/11/16 05:23:23;;;;;;;;;0.00;0.00;;;;;15.37;53.52;100836.72;146607;601;46031;-72
2023/11/16 05:26:28;;;;;;;;;1.00;1.00;;;;;17.13;51.37;101142.47;146609;574;46015;-70
2023/11/16 05:29:35;;;;;;;;;0.00;0.00;;;;;17.14;50.19;101146.91;146618;575;46020;-71
2023/11/16 05:32:40;;;;;;;;;0.00;0.00;;;;;17.15;50.88;101159.16;146611;569;46016;-71
2023/11/16 05:35:34;;;;;;;;;0.33;0.00;;;;;17.17;49.99;101162.72;146618;574;47020;-72
2023/11/16 05:38:38;;;;;;;;;0.00;0.00;;;;;17.19;51.11;101174.12;146610;616;46016;-76
2023/11/16 05:41:33;;;;;;;;;0.00;0.00;;;;;17.17;49.96;101174.09;146615;583;47010;-76
2023/11/16 05:44:28;;;;;;;;;0.00;0.00;;;;;17.16;48.80;101179.25;146614;576;46017;-76
2023/11/16 05:47:32;;;;;;;;;0.00;0.00;;;;;17.17;50.24;101186.31;146614;584;47014;-72
2023/11/16 05:50:27;;;;;;;;;0.00;0.00;;;;;17.20;51.87;101182.03;146608;573;47012;-80
2023/11/16 05:53:42;;;;;;;;;0.00;0.00;;;;;15.94;52.38;100865.59;146606;582;46020;-79
2023/11/16 05:56:49;;;;;;;;;0.00;0.00;;;;;18.55;48.49;101200.81;146608;613;47017;-78
2023/11/16 05:59:50;;;;;;;;;0.00;0.00;;;;;19.49;49.00;101204.00;146619;596;47010;-80
2023/11/16 06:02:47;;;;;;;;;2.00;1.00;;;;;20.27;44.83;101208.31;146613;631;48012;-84
2023/11/16 06:05:41;;;;;;;;;0.67;0.67;;;;;20.63;41.08;101225.72;146620;574;46023;-80
2023/11/16 06:08:49;;;;;;;;;1.00;0.00;;;;;21.04;43.52;101229.06;146619;606;46914;-78
2023/11/16 06:12:01;;;;;;;;;0.00;0.00;;;;;21.63;39.83;101244.94;146619;599;47010;-83
2023/11/16 06:15:16;;;;;;;;;0.00;0.00;;;;;20.68;42.77;100990.41;146609;609;48012;-77
2023/11/16 06:18:26;;;;;;;;;0.00;0.00;;;;;22.57;39.21;101268.16;146618;609;46020;-76
2023/11/16 06:21:18;;;;;;;;;0.67;0.67;;;;;23.02;39.50;101266.88;146611;583;46017;-80
2023/11/16 06:24:24;;;;;;;;;1.00;1.00;;;;;23.52;41.53;101278.72;146608;569;47010;-79
2023/11/16 06:27:38;;;;;;;;;0.67;0.67;;;;;24.04;37.43;101280.81;146613;601;46016;-80
2023/11/16 06:30:39;;;;;;;;;1.33;0.00;;;;;24.51;37.62;101285.44;146618;569;47010;-78
2023/11/16 06:33:49;;;;;;;;;0.00;0.00;;;;;24.69;38.85;101298.75;146614;577;47016;-79
2023/11/16 06:37:00;;;;;;;;;0.00;0.00;;;;;24.28;34.26;101295.94;146619;589;46020;-82
2023/11/16 06:40:08;;;;;;;;;1.00;1.00;;;;;23.65;37.04;101290.28;146617;662;46016;-77
2023/11/16 06:43:16;;;;;;;;;0.00;0.00;;;;;22.78;35.33;101266.59;146621;580;46010;-85
2023/11/16 06:46:17;;;;;;;;;1.67;1.00;;;;;22.01;39.57;101289.47;146613;593;46025;-78
2023/11/16 06:49:24;;;;;;;;;3.67;3.00;;;;;21.48;40.40;101313.31;146620;573;47019;-79
2023/11/16 06:52:23;;;;;;;;;1.00;0.00;;;;;21.05;39.58;101306.41;146617;600;46913;-80
2023/11/16 06:55:26;;;;;;;;;3.00;3.00;;;;;20.66;41.01;101320.63;146615;594;46014;-77
2023/11/16 06:58:31;;;;;;;;;4.00;3.33;;;;;20.39;43.91;101316.53;146614;602;47016;-80
2023/11/16 07:01:52;;;;;;;;;1.00;1.00;;;;;18.64;45.73;101040.84;146613;572;47010;-79
2023/11/16 07:04:55;;;;;;;;;;;;;;;;;;;;;
2023/11/16 07:07:50;;;;;;;;;0.67;0.67;;;;;20.02;42.29;101318.37;146611;586;46020;-79
2023/11/16 07:10:59;;;;;;;;;1.00;0.00;;;;;19.98;43.36;101316.53;146610;564;46017;-82
2023/11/16 07:14:08;;;;;;;;;0.67;0.33;;;;;19.89;41.73;101324.25;146616;564;46010;-79
2023/11/16 07:17:19;;;;;;;;;2.00;1.00;;;;;19.81;45.30;101339.88;146612;669;46016;-79
2023/11/16 07:20:16;;;;;;;;;1.00;0.33;;;;;19.81;41.95;101342.50;146614;614;47010;-79
2023/11/16 07:23:44;;;;;;;;;0.33;0.00;;;;;19.89;42.34;101344.41;146609;578;46903;-80
2023/11/16 07:26:48;;;;;;;;;2.00;0.67;;;;;19.96;43.60;101349.84;146604;566;46021;-79
2023/11/16 07:29:49;;;;;;;;;0.00;0.00;;;;;19.98;39.01;101348.13;146608;606;47012;-76
2023/11/16 07:32:41;;;;;;;;;0.00;0.00;;;;;19.97;37.21;101356.91;146616;580;46011;-77
2023/11/16 07:35:59;;;;;;;;;0.00;0.00;;;;;19.92;37.59;101366.41;146610;736;47016;-80
2023/11/16 07:39:41;;;;;;;;;0.00;0.00;;;;;19.88;39.19;101379.50;146613;591;47010;-79
2023/11/16 07:42:45;;;;;;;;;0.00;0.00;;;;;19.88;40.39;101376.84;146609;580;47014;-79
2023/11/16 07:46:07;;;;;;;;;0.00;0.00;;;;;19.88;38.19;101372.47;146615;638;46020;-77
2023/11/16 07:49:14;;;;;;;;;0.00;0.00;;;;;19.88;37.53;101376.84;146611;596;46016;-78
2023/11/16 07:52:10;;;;;;;;;0.00;0.00;;;;;19.81;39.34;101370.53;146613;636;46010;-78
2023/11/16 07:55:25;;;;;;;;;0.00;0.00;;;;;19.79;39.87;101374.88;146609;569;47039;-78
2023/11/16 07:59:03;;;;;;;;;;;;;;;;;;;;;
2023/11/16 08:02:00;;;;;;;;;0.00;0.00;;;;;19.92;36.79;101376.06;146609;615;47016;-85
2023/11/16 08:05:05;;;;;;;;;0.00;0.00;;;;;18.20;39.64;101080.03;146614;633;45021;-77
2023/11/16 08:08:37;;;;;;;;;;;;;;;;;;;;;
2023/11/16 08:11:36;;;;;;;;;0.00;0.00;;;;;20.01;36.25;101378.91;146615;651;46011;-76
2023/11/16 08:14:51;;;;;;;;;0.00;0.00;;;;;18.44;41.27;101103.38;146611;604;46016;-76
2023/11/16 08:17:54;;;;;;;;;0.00;0.00;;;;;20.21;35.14;101411.84;146613;593;46010;-79
2023/11/16 08:20:55;;;;;;;;;0.00;0.00;;;;;20.34;37.37;101404.22;146608;575;47036;-75
2023/11/16 08:23:59;;;;;;;;;0.00;0.00;;;;;20.48;40.67;101416.84;146609;626;47020;-78
2023/11/16 08:27:03;;;;;;;;;0.00;0.00;;;;;20.66;38.53;101418.12;146609;589;46016;-76
2023/11/16 08:30:12;;;;;;;;;0.00;0.00;;;;;19.04;40.31;101121.50;146603;592;46010;-76
2023/11/16 08:33:26;;;;;;;;;1.00;1.00;;;;;19.31;39.02;101139.63;146604;574;47913;-78
2023/11/16 08:36:25;;;;;;;;;0.67;0.00;;;;;21.07;36.87;101418.94;146613;579;49010;-76
2023/11/16 08:39:20;;;;;;;;;0.00;0.00;;;;;21.20;37.74;101423.59;146611;604;46913;-76
2023/11/16 08:42:15;;;;;;;;;0.00;0.00;;;;;21.26;37.28;101422.81;146614;629;46021;-79
2023/11/16 08:46:11;;;;;;;;;0.00;0.00;;;;;21.38;37.77;101417.81;146609;631;46012;-74
2023/11/16 08:49:04;;;;;;;;;0.00;0.00;;;;;21.32;36.43;101420.31;146614;571;46014;-77
2023/11/16 08:52:20;;;;;;;;;0.00;0.00;;;;;21.32;34.67;101427.34;146610;595;46016;-75
2023/11/16 08:55:31;;;;;;;;;;;;;;;;;;;;;
2023/11/16 08:58:29;;;;;;;;;0.00;0.00;;;;;21.33;37.34;101440.53;146609;595;47012;-77
2023/11/16 09:01:35;;;;;;;;;0.67;0.00;;;;;21.36;40.40;101445.03;146601;625;46010;-77
2023/11/16 09:04:32;;;;;;;;;0.00;0.00;;;;;21.42;35.85;101432.81;146609;616;46913;-76
2023/11/16 09:07:33;;;;;;;;;0.00;0.00;;;;;21.49;37.47;101432.94;146613;591;47010;-77
2023/11/16 09:10:42;;;;;;;;;1.00;1.00;;;;;21.55;36.68;101425.12;146608;630;46022;-78
2023/11/16 09:13:56;;;;;;;;;0.00;0.00;;;;;21.63;40.18;101424.41;146614;628;47014;-74
2023/11/16 09:17:04;;;;;;;;;0.00;0.00;;;;;21.71;37.67;101432.44;146610;645;47012;-76
2023/11/16 09:19:57;;;;;;;;;0.00;0.00;;;;;21.79;35.66;101424.66;146615;574;46020;-77
2023/11/16 09:23:07;;;;;;;;;0.00;0.00;;;;;21.87;37.68;101426.56;146608;574;47012;-77
2023/11/16 09:26:40;;;;;;;;;0.00;0.00;;;;;20.30;38.54;101139.91;146616;572;46021;-77
2023/11/16 09:29:52;;;;;;;;;;;;;;;;;;;;;
2023/11/16 09:33:00;;;;;;;;;0.00;0.00;;;;;22.06;34.28;101416.31;146601;619;47014;-78
2023/11/16 09:36:02;;;;;;;;;0.00;0.00;;;;;22.17;37.54;101422.66;146609;644;46016;-75
2023/11/16 09:39:07;;;;;;;;;0.00;0.00;;;;;22.26;35.30;101419.25;146612;569;47020;-76
2023/11/16 09:42:02;;;;;;;;;0.00;0.00;;;;;22.40;36.01;101422.06;146606;585;46016;-79
2023/11/16 09:45:15;;;;;;;;;0.00;0.00;;;;;22.48;34.04;101423.97;146612;583;48020;-77
2023/11/16 09:48:35;;;;;;;;;0.00;0.00;;;;;22.41;37.84;101423.87;146610;585;46030;-76
2023/11/16 09:51:49;;;;;;;;;0.00;0.00;;;;;22.27;36.40;101427.19;146615;613;47014;-77
2023/11/16 09:54:52;;;;;;;;;0.00;0.00;;;;;22.28;33.34;101425.47;146612;591;46012;-80
2023/11/16 09:58:07;;;;;;;;;0.00;0.00;;;;;22.33;37.24;101422.00;146614;586;47010;-75
2023/11/16 10:01:29;;;;;;;;;0.00;0.00;;;;;22.33;35.90;101429.91;146613;575;46017;-75
2023/11/16 10:07:56;;;;;;;;;;;;;;;;;;;;;
2023/11/16 10:11:58;;;;;;;;;0.00;0.00;;;;;20.50;38.19;101228.09;146638;570;45023;-71
2023/11/16 10:16:03;;;;;;;;;0.00;0.00;;;;;21.53;39.98;101411.03;146635;645;45016;-71
2023/11/16 10:20:17;;;;;;;;;;;;;;;;;;;;;
2023/11/16 10:24:09;;;;;;;;;0.00;0.00;;;;;20.28;40.65;101257.50;146634;591;45016;-70
2023/11/16 10:28:14;;;;;;;;;0.00;0.00;;;;;20.47;37.99;101307.06;146636;615;45022;-71
2023/11/16 10:31:58;;;;;;;;;0.00;0.00;;;;;21.02;37.25;101420.59;146635;639;45016;-71
2023/11/16 10:35:46;;;;;;;;;;;;;;;;;;;;;
2023/11/16 10:39:43;;;;;;;;;0.00;0.00;;;;;21.32;40.79;101428.22;146634;579;45018;-71
2023/11/16 10:43:25;;;;;;;;;1.00;0.00;;;;;21.71;36.08;101424.53;146637;662;45020;-71
2023/11/16 10:47:05;;;;;;;;;;;;;;;;;;;;;
2023/11/16 10:50:55;;;;;;;;;4.00;2.00;;;;;22.26;39.56;101421.91;146636;591;46052;-70
2023/11/16 10:54:40;;;;;;;;;6.33;4.33;;;;;21.46;39.12;101206.84;146632;575;45916;-71
2023/11/16 10:58:27;;;;;;;;;;;;;;;;;;;;;
2023/11/16 11:02:21;;;;;;;;;4.00;3.00;;;;;22.31;39.48;101203.59;146633;611;45914;-71
2023/11/16 11:10:51;;;;;;;;;;;;;;;;;;;;;
2023/11/16 11:14:34;;;;;;;;;0.00;0.00;;;;;23.83;35.68;101382.22;146638;590;45022;-71
2023/11/16 11:17:46;;;;;;;;;0.00;0.00;;;;;23.73;32.63;101373.31;146634;605;45914;-69
2023/11/16 11:21:54;;;;;;;;;0.00;0.00;;;;;23.01;38.20;101262.44;146628;573;51017;-71
2023/11/16 11:29:52;;;;;;;;;0.00;0.00;;;;;22.25;39.09;101159.50;146638;671;45020;-72
2023/11/16 11:34:13;;;;;;;;;;;;;;;;;;;;;
2023/11/16 11:38:03;;;;;;;;;;;;;;;;;;;;;
2023/11/16 11:41:48;;;;;;;;;1.33;0.67;;;;;21.87;38.71;101211.84;146629;593;48010;-71
2023/11/16 11:45:21;;;;;;;;;0.00;0.00;;;;;22.77;38.09;101383.78;146635;567;45022;-70
2023/11/16 11:49:08;;;;;;;;;;;;;;;;;;;;;
2023/11/16 11:52:43;;;;;;;;;;;;;;;;;;;;;
2023/11/16 11:56:03;;;;;;;;;;;;;;;;;;;;;
2023/11/16 11:59:47;;;;;;;;;0.00;0.00;;;;;21.51;38.67;101191.12;146634;625;45020;-71
2023/11/16 12:03:33;;;;;;;;;0.00;0.00;;;;;21.85;39.43;101192.44;146635;579;45019;-71
2023/11/16 12:07:26;;;;;;;;;;;;;;;;;;;;;
2023/11/16 12:15:44;;;;;;;;;0.00;0.00;;;;;21.89;36.96;101184.56;146638;662;45022;-71
2023/11/16 12:23:18;;;;;;;;;0.00;0.00;;;;;23.45;37.74;101369.53;146639;619;45020;-71
2023/11/16 12:27:17;;;;;;;;;;;;;;;;;;;;;
2023/11/16 12:30:55;;;;;;;;;1.00;0.00;;;;;22.78;32.56;101164.38;146635;630;47012;-71
2023/11/16 12:38:38;;;;;;;;;;;;;;;;;;;;;
2023/11/16 12:42:22;;;;;;;;;;;;;;;;;;;;;
2023/11/16 12:46:09;;;;;;;;;0.00;0.00;;;;;21.96;34.52;101164.41;146638;601;45022;-71
2023/11/16 12:49:34;;;;;;;;;0.00;0.00;;;;;22.95;32.59;101362.87;146634;618;45916;-71
2023/11/16 12:53:47;;;;;;;;;0.00;0.00;;;;;21.64;31.45;101161.38;146638;581;45022;-72
2023/11/16 13:05:30;;;;;;;;;0.00;0.00;;;;;21.14;34.35;101145.72;146633;638;45018;-72
2023/11/16 13:09:07;;;;;;;;;1.00;0.00;;;;;22.36;34.54;101378.88;146636;592;45021;-72
2023/11/16 13:13:30;;;;;;;;;;;;;;;;;;;;;
2023/11/16 13:17:35;;;;;;;;;;;;;;;;;;;;;
2023/11/16 13:21:17;;;;;;;;;0.00;0.00;;;;;21.05;37.40;101174.56;146634;586;45016;-70
2023/11/16 13:24:57;;;;;;;;;;;;;;;;;;;;;
2023/11/16 13:28:49;;;;;;;;;1.00;1.00;;;;;20.64;35.99;101154.59;146635;563;45018;-71
2023/11/16 13:32:28;;;;;;;;;1.00;0.00;;;;;22.20;36.97;101377.78;146637;569;45020;-71
2023/11/16 13:35:57;;;;;;;;;0.00;0.00;;;;;22.39;37.49;101388.59;146634;725;45016;-72
2023/11/16 13:39:50;;;;;;;;;0.67;0.67;;;;;21.41;36.19;101188.34;146637;630;45021;-73
2023/11/16 13:43:50;;;;;;;;;;;;;;;;;;;;;
2023/11/16 13:47:31;;;;;;;;;1.00;1.00;;;;;21.36;36.06;101178.59;146637;690;45021;-71
2023/11/16 13:51:32;;;;;;;;;;;;;;;;;;;;;
2023/11/16 13:55:25;;;;;;;;;;;;;;;;;;;;;
2023/11/16 13:58:54;;;;;;;;;0.00;0.00;;;;;22.32;37.29;101382.34;146633;571;45017;-70
2023/11/16 14:06:16;;;;;;;;;1.00;0.00;;;;;20.62;37.21;101179.13;146633;631;45918;-71
2023/11/16 14:10:19;;;;;;;;;0.00;0.00;;;;;20.28;38.38;101179.37;146637;570;45020;-71
2023/11/16 14:14:13;;;;;;;;;;;;;;;;;;;;;
2023/11/16 14:17:53;;;;;;;;;1.00;0.00;;;;;20.82;39.28;101388.59;146639;588;45020;-72
2023/11/16 14:21:45;;;;;;;;;0.00;0.00;;;;;20.48;38.60;101400.13;146633;603;45915;-73
2023/11/16 14:25:33;;;;;;;;;1.00;0.67;;;;;20.20;40.57;101391.62;146638;572;45020;-71
2023/11/16 14:29:43;;;;;;;;;3.00;1.00;;;;;18.75;41.11;101177.72;146634;592;45915;-71
2023/11/16 14:33:20;;;;;;;;;2.00;2.00;;;;;19.82;40.27;101403.91;146637;731;45020;-70
2023/11/16 14:36:56;;;;;;;;;2.00;1.33;;;;;18.55;42.12;101198.19;146635;604;45016;-71
2023/11/16 14:41:03;;;;;;;;;4.00;3.67;;;;;19.68;42.89;101405.28;146638;569;45020;-71
2023/11/16 14:48:49;;;;;;;;;9.67;8.67;;;;;18.28;42.83;101185.22;146635;698;47012;-71
2023/11/16 14:52:25;;;;;;;;;;;;;;;;;;;;;
2023/11/16 15:00:14;;;;;;;;;3.00;2.00;;;;;17.96;44.70;101204.47;146635;619;45016;-71
2023/11/16 15:03:44;;;;;;;;;2.67;2.33;;;;;17.75;45.73;101188.94;146637;572;45020;-71
2023/11/16 15:11:33;;;;;;;;;;;;;;;;;;;;;
2023/11/16 15:19:23;;;;;;;;;;;;;;;;;;;;;
2023/11/16 15:22:57;;;;;;;;;17.50;17.50;;;;;18.11;47.93;101423.59;146626;577;45017;-70
2023/11/16 15:26:47;;;;;;;;;4.00;4.00;;;;;16.64;48.08;101194.13;146632;606;47010;-70
2023/11/16 15:34:42;;;;;;;;;;;;;;;;;;;;;
2023/11/16 15:38:28;;;;;;;;;;;;;;;;;;;;;
2023/11/16 15:42:06;;;;;;;;;;;;;;;;;;;;;
2023/11/16 15:50:03;;;;;;;;;;;;;;;;;;;;;
2023/11/16 15:54:05;;;;;;;;;31.25;28.00;;;;;15.46;50.88;101197.66;146623;598;45019;-71
2023/11/16 15:57:50;;;;;;;;;;;;;;;;;;;;;
2023/11/16 16:01:55;;;;;;;;;;;;;;;;;;;;;
2023/11/16 16:05:50;;;;;;;;;7.00;7.00;;;;;16.67;50.50;101410.69;146630;633;45020;-71
2023/11/16 16:09:43;;;;;;;;;7.25;6.50;;;;;16.65;51.25;101422.81;146632;571;45018;-70
2023/11/16 16:14:00;;;;;;;;;;;;;;;;;;;;;
2023/11/16 16:17:44;;;;;;;;;;;;;;;;;;;;;
2023/11/16 16:21:43;;;;;;;;;7.75;6.25;;;;;15.32;50.46;101211.88;146631;595;45031;-70
2023/11/16 16:25:31;;;;;;;;;9.00;9.00;;;;;15.22;50.79;101205.41;146630;592;45016;-70
2023/11/16 16:28:59;;;;;;;;;8.25;7.00;;;;;15.25;51.11;101201.19;146634;580;45020;-70
2023/11/16 16:32:45;;;;;;;;;;;;;;;;;;;;;
2023/11/16 16:36:40;;;;;;;;;8.25;7.25;;;;;15.17;50.34;101210.47;146633;566;45020;-71
2023/11/16 16:40:33;;;;;;;;;3.50;3.25;;;;;15.12;50.91;101216.31;146632;580;45018;-70
2023/11/16 16:44:32;;;;;;;;;;;;;;;;;;;;;
2023/11/16 16:52:00;;;;;;;;;;;;;;;;;;;;;
2023/11/16 16:55:45;;;;;;;;;5.00;3.75;;;;;16.04;51.76;101437.91;146633;691;45018;-72
2023/11/16 16:59:39;;;;;;;;;5.00;5.00;;;;;14.61;51.59;101213.31;146636;566;45020;-70
2023/11/16 17:03:05;;;;;;;;;;;;;;;;;;;;;
2023/11/16 17:06:25;;;;;;;;;19.00;16.50;;;;;15.96;52.14;101449.78;146625;582;45012;-70
2023/11/16 17:09:53;;;;;;;;;18.75;16.25;;;;;14.73;52.26;101239.94;146623;580;45016;-69
2023/11/16 17:13:37;;;;;;;;;;;;;;;;;;;;;
2023/11/16 17:17:10;;;;;;;;;11.75;10.75;;;;;15.87;52.30;101446.81;146628;578;45018;-71
2023/11/16 17:21:09;;;;;;;;;;;;;;;;;;;;;
2023/11/16 17:25:05;;;;;;;;;;;;;;;;;;;;;
2023/11/16 17:28:39;;;;;;;;;5.50;5.50;;;;;15.51;51.95;101439.16;146636;570;45022;-70
2023/11/16 17:36:12;;;;;;;;;;;;;;;;;;;;;
2023/11/16 17:43:54;;;;;;;;;2.00;2.00;;;;;15.31;51.62;101442.66;146636;606;45020;-69
2023/11/16 17:51:17;;;;;;;;;4.00;3.25;;;;;15.16;52.17;101428.09;146634;579;45020;-71
2023/11/16 17:55:02;;;;;;;;;10.25;6.25;;;;;15.10;51.70;101421.69;146634;660;45016;-69
2023/11/16 17:58:55;;;;;;;;;29.25;23.50;;;;;15.07;52.11;101418.94;146631;763;45023;-71
2023/11/16 18:02:41;;;;;;;;;;;;;;;;;;;;;
2023/11/16 18:06:46;;;;;;;;;9.25;8.25;;;;;13.61;52.35;101199.31;146635;564;45023;-69
2023/11/16 18:10:51;;;;;;;;;;;;;;;;;;;;;
2023/11/16 18:14:17;;;;;;;;;7.50;6.75;;;;;14.94;53.20;101415.78;146635;642;45021;-70
2023/11/16 18:18:43;;;;;;;;;6.00;6.00;;;;;14.22;52.87;101313.34;146632;613;45016;-71
2023/11/16 18:22:04;;;;;;;;;12.00;10.50;;;;;14.90;52.82;101407.78;146629;613;45021;-69
2023/11/16 18:25:59;;;;;;;;;9.25;7.75;;;;;14.83;53.07;101416.13;146626;611;45923;-70